Time;durP1;ratioP1;P1;durP2;ratioP2;P2;SDS_P1;SDS_P2;PMS_P1;PMS_P2;Temp;Humidity;BMP_temperature;BMP_pressure;BME280_temperature;BME280_humidity;BME280_pressure;Samples;Min_cycle;Max_cycle;Signal;HPM_P1;HPM_P2
2022/10/17 00:02:28;;;;;;;3.85;2.40;;;;;;;13.42;100.00;97300.69;10534584;28;20243;-73
2022/10/17 00:07:29;;;;;;;3.85;2.58;;;;;;;13.45;100.00;97294.28;10534539;28;20194;-73
2022/10/17 00:12:29;;;;;;;2.83;2.13;;;;;;;13.48;100.00;97292.16;10533287;28;20218;-73
2022/10/17 00:17:30;;;;;;;8.85;1.80;;;;;;;13.47;100.00;97298.41;10534162;28;20608;-73
2022/10/17 00:22:30;;;;;;;5.57;2.17;;;;;;;13.36;100.00;97306.59;10534395;28;20600;-73
2022/10/17 00:27:37;;;;;;;7.53;2.10;;;;;;;13.25;100.00;97301.59;10533591;28;20225;-73
2022/10/17 00:32:37;;;;;;;3.53;2.13;;;;;;;13.25;100.00;97293.72;10515077;28;20313;-73
2022/10/17 00:37:38;;;;;;;2.00;1.80;;;;;;;13.27;100.00;97291.72;10533617;28;20203;-73
2022/10/17 00:42:38;;;;;;;2.53;2.00;;;;;;;13.31;100.00;97278.09;10533386;28;20718;-73
2022/10/17 00:47:39;;;;;;;3.05;2.35;;;;;;;13.33;100.00;97276.16;10533386;28;20554;-73
2022/10/17 00:52:40;;;;;;;3.70;1.92;;;;;;;13.35;100.00;97276.00;10532782;28;20241;-73
2022/10/17 00:57:42;;;;;;;2.85;2.00;;;;;;;13.35;100.00;97271.56;10515032;28;20201;-73
2022/10/17 01:02:42;;;;;;;3.80;1.73;;;;;;;13.48;100.00;97272.91;10532093;28;20189;-73
2022/10/17 01:07:43;;;;;;;8.60;2.17;;;;;;;13.48;100.00;97279.00;10532748;28;20190;-74
2022/10/17 01:12:49;;;;;;;6.07;2.20;;;;;;;13.60;100.00;97284.78;10532906;28;20215;-74
2022/10/17 01:17:50;;;;;;;6.43;1.92;;;;;;;13.67;100.00;97283.13;10514424;28;20286;-73
2022/10/17 01:23:35;;;;;;;1.85;1.75;;;;;;;13.72;100.00;97280.03;10537332;28;20701;-74
2022/10/17 01:28:41;;;;;;;2.95;1.80;;;;;;;13.83;100.00;97274.47;10520950;28;20244;-73
2022/10/17 01:34:02;;;;;;;6.15;1.83;;;;;;;13.77;100.00;97261.94;10522328;28;20730;-74
2022/10/17 01:39:10;;;;;;;3.92;1.50;;;;;;;13.90;100.00;97262.28;10540094;28;20205;-74
2022/10/17 01:44:14;;;;;;;6.88;2.03;;;;;;;14.03;100.00;97264.44;10521835;28;20182;-74
2022/10/17 01:49:17;;;;;;;3.63;1.95;;;;;;;14.07;100.00;97267.53;10521726;28;20214;-74
2022/10/17 01:54:26;;;;;;;3.78;2.20;;;;;;;14.06;100.00;97279.09;10521289;28;20313;-73
2022/10/17 01:59:38;;;;;;;4.68;2.05;;;;;;;13.99;100.00;97270.19;10521256;28;20183;-74
2022/10/17 02:04:39;;;;;;;3.00;1.73;;;;;;;13.83;100.00;97263.94;10520930;28;20228;-74
2022/10/17 02:09:39;;;;;;;2.40;2.03;;;;;;;13.89;100.00;97271.16;10521051;28;20248;-74
2022/10/17 02:14:59;;;;;;;8.50;2.20;;;;;;;13.61;100.00;97272.44;10520480;28;20233;-73
2022/10/17 02:20:05;;;;;;;8.00;2.38;;;;;;;13.42;100.00;97270.94;10520901;28;20183;-73
2022/10/17 02:25:18;;;;;;;5.22;1.98;;;;;;;13.34;100.00;97272.53;10519896;28;20635;-73
2022/10/17 02:30:51;;;;;;;3.50;2.45;;;;;;;13.18;100.00;97272.47;10538186;28;20270;-73
2022/10/17 02:35:57;;;;;;;2.60;2.35;;;;;;;13.17;100.00;97261.13;10475314;28;20621;-73
2022/10/17 02:40:58;;;;;;;6.53;2.40;;;;;;;13.17;100.00;97262.94;10519333;28;20195;-74
2022/10/17 02:45:58;;;;;;;3.50;2.25;;;;;;;13.25;100.00;97262.13;10519345;28;20185;-73
2022/10/17 02:51:11;;;;;;;4.22;3.28;;;;;;;13.65;100.00;97263.25;10519286;28;20237;-73
2022/10/17 02:56:17;;;;;;;4.20;3.20;;;;;;;14.11;100.00;97247.78;10518399;28;20680;-73
2022/10/17 03:01:18;;;;;;;4.55;3.30;;;;;;;14.47;100.00;97244.75;10518809;28;20187;-74
2022/10/17 03:06:19;;;;;;;3.58;3.25;;;;;;;14.67;100.00;97242.63;10533277;28;20247;-73
2022/10/17 03:11:19;;;;;;;5.45;3.40;;;;;;;14.78;100.00;97231.72;10498123;28;20600;-73
2022/10/17 03:16:20;;;;;;;7.07;3.20;;;;;;;14.93;100.00;97234.47;10514213;28;20217;-74
2022/10/17 03:21:20;;;;;;;7.97;3.30;;;;;;;15.13;100.00;97237.50;10513626;28;20191;-74
2022/10/17 03:26:21;;;;;;;6.93;2.58;;;;;;;15.24;100.00;97217.00;10512773;28;20739;-74
2022/10/17 03:31:21;;;;;;;3.35;2.83;;;;;;;15.31;100.00;97224.06;10531209;28;20559;-74
2022/10/17 03:36:22;;;;;;;7.55;2.70;;;;;;;15.42;100.00;97233.41;10512739;28;20218;-74
2022/10/17 03:41:23;;;;;;;3.55;3.00;;;;;;;15.34;100.00;97226.34;10531447;28;20214;-73
2022/10/17 03:46:24;;;;;;;5.95;2.58;;;;;;;15.50;100.00;97230.69;10512953;28;20187;-74
2022/10/17 03:51:25;;;;;;;2.60;2.38;;;;;;;15.64;100.00;97230.94;10513303;28;20303;-74
2022/10/17 03:56:31;;;;;;;3.10;2.38;;;;;;;15.58;100.00;97240.38;10511952;28;20732;-74
2022/10/17 04:01:41;;;;;;;2.92;2.30;;;;;;;15.68;100.00;97232.22;10513494;28;20186;-73
2022/10/17 04:06:41;;;;;;;5.85;2.92;;;;;;;15.67;100.00;97230.59;10534895;28;20569;-74
2022/10/17 04:11:43;;;;;;;4.75;2.60;;;;;;;15.70;100.00;97233.69;10516093;28;20534;-74
2022/10/17 04:16:44;;;;;;;6.05;2.47;;;;;;;15.81;100.00;97242.25;10516038;28;20218;-74
2022/10/17 04:21:49;;;;;;;4.35;2.65;;;;;;;15.81;100.00;97244.91;10516037;28;20190;-74
2022/10/17 04:26:51;;;;;;;3.42;2.53;;;;;;;15.84;100.00;97248.00;10515785;28;20185;-73
2022/10/17 04:31:52;;;;;;;4.22;2.80;;;;;;;15.76;100.00;97255.13;10515385;28;20701;-74
2022/10/17 04:36:58;;;;;;;4.25;2.28;;;;;;;15.76;100.00;97265.69;10515514;28;20227;-74
2022/10/17 04:42:00;;;;;;;3.67;2.83;;;;;;;15.81;100.00;97260.75;10515839;28;20195;-74
2022/10/17 04:47:00;;;;;;;4.20;3.13;;;;;;;15.85;100.00;97262.03;10514953;28;20665;-74
2022/10/17 04:52:01;;;;;;;8.10;3.10;;;;;;;15.73;100.00;97264.22;10530691;28;20591;-74
2022/10/17 04:57:10;;;;;;;4.00;3.20;;;;;;;15.61;100.00;97270.91;10518748;28;20199;-74
2022/10/17 05:02:13;;;;;;;3.83;3.13;;;;;;;15.73;100.00;97272.16;10507496;28;20198;-73
2022/10/17 05:07:13;;;;;;;7.13;3.33;;;;;;;15.74;100.00;97271.13;10523442;28;20195;-73
2022/10/17 05:12:27;;;;;;;4.88;3.13;;;;;;;15.60;100.00;97274.53;10523122;28;20219;-74
2022/10/17 05:17:28;;;;;;;4.90;3.10;;;;;;;15.60;100.00;97275.34;10523138;28;20185;-74
2022/10/17 05:22:28;;;;;;;4.70;3.28;;;;;;;15.46;100.00;97282.19;10541010;28;20183;-74
2022/10/17 05:27:30;;;;;;;4.05;3.25;;;;;;;15.42;100.00;97280.09;10522416;28;20676;-73
2022/10/17 05:32:31;;;;;;;4.93;3.38;;;;;;;15.26;100.00;97276.53;10522332;28;20249;-74
2022/10/17 05:37:32;;;;;;;5.38;3.15;;;;;;;15.25;100.00;97296.03;10522168;28;20265;-74
2022/10/17 05:42:36;;;;;;;4.70;3.53;;;;;;;15.20;100.00;97305.44;10521885;28;20560;-74
2022/10/17 05:47:36;;;;;;;6.90;3.35;;;;;;;15.26;100.00;97305.56;10522532;28;20194;-73
2022/10/17 05:52:37;;;;;;;5.55;2.90;;;;;;;15.25;100.00;97301.31;10520999;28;20265;-74
2022/10/17 05:57:43;;;;;;;4.97;2.70;;;;;;;15.37;100.00;97298.28;10519052;28;20289;-74
2022/10/17 06:02:48;;;;;;;8.75;2.78;;;;;;;15.27;100.00;97312.50;10521408;28;20182;-74
2022/10/17 06:07:54;;;;;;;3.83;2.55;;;;;;;15.32;100.00;97312.81;10519800;28;20191;-73
2022/10/17 06:12:56;;;;;;;5.45;3.13;;;;;;;15.48;100.00;97308.44;10520682;28;20210;-74
2022/10/17 06:17:57;;;;;;;4.32;2.53;;;;;;;15.63;100.00;97322.53;10520792;28;20198;-74
2022/10/17 06:23:33;;;;;;;4.50;2.67;;;;;;;15.54;100.00;97333.34;10514810;28;20176;-72
2022/10/17 06:28:41;;;;;;;4.65;2.58;;;;;;;15.69;100.00;97336.88;10396938;28;20229;-74
2022/10/17 06:33:42;;;;;;;2.80;2.33;;;;;;;15.82;100.00;97339.00;10481562;28;20237;-74
2022/10/17 06:38:43;;;;;;;2.50;2.17;;;;;;;16.17;100.00;97350.00;10478410;28;20211;-73
2022/10/17 06:43:52;;;;;;;2.45;2.25;;;;;;;16.62;100.00;97339.59;10477773;28;20191;-74
2022/10/17 06:49:13;;;;;;;2.30;2.00;;;;;;;16.94;100.00;97339.28;10495726;28;20183;-74
2022/10/17 06:54:36;;;;;;;2.35;2.15;;;;;;;17.28;97.23;97335.25;10494545;28;20231;-74
2022/10/17 06:59:56;;;;;;;2.40;2.10;;;;;;;17.67;93.87;97324.53;10495921;28;20198;-74
2022/10/17 07:11:29;;;;;;;2.33;1.98;;;;;;;18.10;89.11;97322.78;10311313;28;20190;-73
2022/10/17 07:16:36;;;;;;;2.90;2.60;;;;;;;18.29;87.48;97337.22;10322449;28;20214;-73
2022/10/17 07:28:39;;;;;;;3.25;2.88;;;;;;;18.16;89.09;97348.53;10257525;28;21015;-74
2022/10/17 07:33:53;;;;;;;5.80;3.45;;;;;;;18.35;88.12;97354.22;10413752;28;20236;-74
2022/10/17 07:38:54;;;;;;;4.93;2.13;;;;;;;18.56;85.83;97329.50;10489963;28;20230;-74
2022/10/17 07:44:14;;;;;;;5.97;3.70;;;;;;;18.68;85.41;97345.72;10490026;28;20278;-72
2022/10/17 08:09:52;;;;;;;4.03;3.10;;;;;;;19.62;80.12;97328.53;10411236;28;20191;-73
2022/10/17 08:14:52;;;;;;;4.63;2.55;;;;;;;19.91;78.82;97326.59;10490698;28;20229;-75
2022/10/17 08:19:53;;;;;;;3.88;3.15;;;;;;;20.07;76.04;97304.13;10489683;28;20183;-74
2022/10/17 08:24:53;;;;;;;4.88;2.63;;;;;;;19.99;75.73;97315.75;10508892;28;20561;-74
2022/10/17 08:29:54;;;;;;;5.10;2.67;;;;;;;20.50;73.54;97293.09;10528877;28;20195;-75
2022/10/17 08:34:55;;;;;;;4.50;3.28;;;;;;;20.65;72.52;97280.41;10526200;28;20211;-75
2022/10/17 08:39:55;;;;;;;4.93;4.53;;;;;;;20.73;71.99;97287.34;10512866;28;20234;-75
2022/10/17 08:45:10;;;;;;;4.30;3.33;;;;;;;21.00;69.64;97250.84;10531857;28;20175;-74
2022/10/17 08:50:36;;;;;;;4.75;3.30;;;;;;;21.66;67.67;97240.94;10532082;28;20202;-75
2022/10/17 08:55:42;;;;;;;3.03;2.72;;;;;;;21.84;66.88;97253.56;10466138;28;20326;-75
2022/10/17 09:00:49;;;;;;;4.97;3.35;;;;;;;21.71;65.09;97226.97;10471954;28;20603;-75
2022/10/17 09:06:01;;;;;;;5.15;2.65;;;;;;;22.30;63.83;97224.88;10471332;28;20670;-76
2022/10/17 09:11:19;;;;;;;4.35;2.72;;;;;;;21.76;63.84;97215.66;10470915;28;20195;-75
2022/10/17 09:16:47;;;;;;;3.45;2.78;;;;;;;22.37;63.92;97244.34;10489504;28;20247;-74
2022/10/17 09:22:00;;;;;;;5.95;3.60;;;;;;;22.19;63.83;97241.59;10489792;28;20617;-74
2022/10/17 09:27:01;;;;;;;4.90;3.70;;;;;;;22.21;64.87;97253.69;10489083;28;20596;-75
2022/10/17 09:32:16;;;;;;;6.95;4.38;;;;;;;21.73;64.76;97255.06;10472183;28;20190;-75
2022/10/17 09:37:17;;;;;;;5.80;4.55;;;;;;;21.99;64.62;97247.91;10471452;28;20219;-74
2022/10/17 09:42:20;;;;;;;9.25;4.53;;;;;;;22.23;63.50;97245.47;10449144;28;20580;-75
2022/10/17 09:47:45;;;;;;;5.20;4.50;;;;;;;23.27;61.14;97231.53;10437563;28;20602;-74
2022/10/17 09:52:47;;;;;;;8.25;5.07;;;;;;;23.28;60.75;97238.50;10436649;28;20240;-75
2022/10/17 09:57:59;;;;;;;5.32;4.80;;;;;;;23.93;58.63;97211.06;10455270;28;20194;-75
2022/10/17 10:03:08;;;;;;;8.20;5.15;;;;;;;24.56;56.46;97188.19;10454962;28;20186;-75
2022/10/17 10:08:15;;;;;;;5.05;4.28;;;;;;;25.06;53.94;97156.53;10454437;28;20203;-75
2022/10/17 10:13:19;;;;;;;6.45;4.32;;;;;;;24.68;53.60;97145.31;10435068;28;20593;-75
2022/10/17 10:18:31;;;;;;;6.53;5.00;;;;;;;25.03;52.85;97152.44;10454175;28;20188;-75
2022/10/17 10:23:32;;;;;;;6.28;4.90;;;;;;;26.32;51.14;97162.72;10454451;28;20322;-75
2022/10/17 10:28:34;;;;;;;7.40;4.70;;;;;;;25.87;50.99;97145.66;10435690;28;20184;-75
2022/10/17 10:33:40;;;;;;;5.60;5.10;;;;;;;26.28;50.24;97151.66;10435896;28;20224;-74
2022/10/17 10:38:42;;;;;;;8.55;6.25;;;;;;;24.98;54.17;97186.38;10435302;28;20223;-74
2022/10/17 10:43:45;;;;;;;6.82;5.97;;;;;;;24.45;55.26;97196.22;10435639;28;20180;-75
2022/10/17 10:48:49;;;;;;;8.13;7.20;;;;;;;24.65;55.33;97206.59;10435185;28;20671;-74
2022/10/17 10:54:07;;;;;;;9.02;6.88;;;;;;;25.02;55.09;97204.47;10451964;28;20875;-74
2022/10/17 10:59:08;;;;;;;11.57;6.45;;;;;;;25.19;52.91;97150.91;10435107;28;21003;-74
2022/10/17 11:05:03;;;;;;;6.00;5.35;;;;;;;24.96;52.64;97157.13;10452386;28;20326;-75
2022/10/17 11:10:18;;;;;;;6.85;5.65;;;;;;;25.68;50.77;97141.56;10412071;28;20251;-75
2022/10/17 11:15:53;;;;;;;8.25;5.07;;;;;;;25.39;50.54;97122.81;10451339;28;20782;-74
2022/10/17 11:20:59;;;;;;;7.43;4.45;;;;;;;25.26;50.10;97107.84;10451781;28;20644;-75
2022/10/17 11:26:02;;;;;;;5.07;4.57;;;;;;;25.38;50.47;97126.59;10451417;28;20199;-74
2022/10/17 11:31:05;;;;;;;3.67;3.35;;;;;;;27.07;45.28;97065.56;10433454;28;20195;-74
2022/10/17 11:36:07;;;;;;;4.32;3.78;;;;;;;27.33;46.44;97102.41;10451140;28;20220;-74
2022/10/17 11:41:12;;;;;;;3.63;3.20;;;;;;;26.98;45.14;97075.94;10451111;28;20686;-74
2022/10/17 11:46:26;;;;;;;4.43;3.55;;;;;;;26.60;45.22;97056.97;10432205;28;20187;-75
2022/10/17 11:51:29;;;;;;;5.05;3.35;;;;;;;26.88;43.50;97021.00;10432191;28;20235;-74
2022/10/17 11:56:42;;;;;;;3.05;2.70;;;;;;;27.12;44.30;97047.59;10432079;28;20233;-74
2022/10/17 12:01:56;;;;;;;4.25;2.78;;;;;;;28.75;43.12;97077.78;10450207;28;20192;-75
2022/10/17 12:07:26;;;;;;;2.88;2.65;;;;;;;29.05;41.10;97038.47;10448917;28;20663;-75
2022/10/17 12:12:33;;;;;;;4.50;3.20;;;;;;;28.01;43.69;97039.16;10449969;28;20548;-75
2022/10/17 12:17:39;;;;;;;7.10;3.00;;;;;;;27.23;43.16;96994.72;10432110;28;20241;-75
2022/10/17 12:22:46;;;;;;;3.05;2.75;;;;;;;27.28;43.11;96997.44;10432466;28;20188;-74
2022/10/17 12:27:48;;;;;;;6.35;3.08;;;;;;;27.13;43.92;97016.13;10449758;28;20213;-75
2022/10/17 12:33:04;;;;;;;4.30;2.90;;;;;;;27.46;42.99;96998.13;10431863;28;20220;-74
2022/10/17 12:38:25;;;;;;;4.90;4.10;;;;;;;27.11;45.12;97023.66;10415144;28;20691;-74
2022/10/17 12:43:28;;;;;;;5.50;4.50;;;;;;;26.31;46.54;97024.09;10449131;28;20186;-74
2022/10/17 12:48:40;;;;;;;8.35;6.63;;;;;;;25.98;48.33;97056.16;10449058;28;20196;-75
2022/10/17 12:53:56;;;;;;;9.93;6.20;;;;;;;26.10;48.44;97058.75;10449175;28;20267;-75
2022/10/17 12:58:57;;;;;;;12.57;7.80;;;;;;;25.18;50.61;97076.84;10448829;28;20207;-74
2022/10/17 13:04:01;;;;;;;9.63;8.18;;;;;;;24.67;52.14;97102.69;10431215;28;20187;-74
2022/10/17 13:09:28;;;;;;;11.93;8.55;;;;;;;24.70;52.98;97116.44;10431512;28;20235;-74
2022/10/17 13:14:30;;;;;;;12.30;7.47;;;;;;;24.83;51.25;97085.88;10417691;28;20271;-75
2022/10/17 13:19:43;;;;;;;10.48;8.98;;;;;;;24.09;53.53;97105.22;10454397;28;20200;-75
2022/10/17 13:24:43;;;;;;;10.43;8.60;;;;;;;24.58;51.70;97080.84;10438601;28;20288;-74
2022/10/17 13:29:44;;;;;;;15.88;9.73;;;;;;;24.32;52.75;97098.19;10455932;28;20563;-74
2022/10/17 13:34:44;;;;;;;14.75;10.38;;;;;;;24.32;53.21;97103.53;10456031;28;20226;-74
2022/10/17 13:39:46;;;;;;;14.48;11.45;;;;;;;23.60;54.97;97117.91;10455214;28;20291;-75
2022/10/17 13:44:47;;;;;;;20.20;13.85;;;;;;;23.43;56.84;97160.56;10469487;28;20184;-74
2022/10/17 13:49:48;;;;;;;22.67;15.30;;;;;;;22.98;58.38;97167.88;10488222;28;20222;-75
2022/10/17 13:54:50;;;;;;;17.48;15.07;;;;;;;23.17;58.16;97175.09;10506888;28;20235;-75
2022/10/17 13:59:53;;;;;;;19.35;15.80;;;;;;;22.70;59.81;97203.16;10510480;28;20191;-75
2022/10/17 14:05:17;;;;;;;24.88;16.50;;;;;;;21.87;62.94;97244.31;10496125;28;20738;-75
2022/10/17 14:10:24;;;;;;;25.45;18.73;;;;;;;22.03;62.77;97238.44;10513329;28;20187;-74
2022/10/17 14:15:29;;;;;;;31.58;19.67;;;;;;;21.45;65.16;97257.22;10514068;28;20206;-74
2022/10/17 14:20:30;;;;;;;33.72;23.40;;;;;;;21.47;65.22;97257.81;10516831;28;20252;-74
2022/10/17 14:25:36;;;;;;;28.50;20.45;;;;;;;22.90;62.02;97247.56;10534596;28;20255;-74
2022/10/17 14:30:39;;;;;;;28.83;21.42;;;;;;;22.04;62.52;97240.06;10511726;28;20226;-75
2022/10/17 14:35:48;;;;;;;26.42;19.33;;;;;;;21.82;64.22;97268.13;10492317;28;20219;-75
2022/10/17 14:40:56;;;;;;;25.13;20.02;;;;;;;20.28;68.97;97309.25;10474548;28;20214;-75
2022/10/17 14:45:57;;;;;;;27.20;20.63;;;;;;;19.76;71.61;97324.88;10492209;28;20206;-74
2022/10/17 14:56:23;;;;;;;35.30;21.70;;;;;;;19.24;75.40;97340.41;10625055;27;20609;-59
2022/10/17 15:01:23;;;;;;;31.77;22.55;;;;;;;19.20;77.67;97355.09;10608481;27;20197;-59
2022/10/17 15:06:27;;;;;;;33.97;23.50;;;;;;;18.56;79.93;97363.16;10609331;27;20213;-58
2022/10/17 15:11:28;;;;;;;33.47;24.45;;;;;;;18.33;83.07;97367.69;10608056;27;20634;-60
2022/10/17 15:16:33;;;;;;;38.25;23.33;;;;;;;18.31;84.39;97367.03;10607491;28;20221;-59
2022/10/17 15:21:33;;;;;;;37.10;24.42;;;;;;;18.44;84.54;97355.75;10608741;27;20253;-60
2022/10/17 15:26:34;;;;;;;45.85;23.65;;;;;;;18.27;85.97;97360.47;10607650;28;20273;-60
2022/10/17 15:31:34;;;;;;;35.42;24.05;;;;;;;18.22;85.88;97375.31;10608348;28;20243;-59
2022/10/17 15:36:39;;;;;;;37.58;24.30;;;;;;;17.87;88.20;97391.00;10606229;28;20225;-59
2022/10/17 15:41:39;;;;;;;32.97;22.73;;;;;;;18.41;86.91;97392.41;10607557;27;20647;-61
2022/10/17 15:46:40;;;;;;;34.25;24.55;;;;;;;18.09;89.82;97411.28;10601294;27;20214;-60
2022/10/17 15:51:41;;;;;;;38.88;23.92;;;;;;;17.73;90.73;97413.88;10563742;28;20324;-61
2022/10/17 15:56:41;;;;;;;32.42;23.85;;;;;;;16.89;97.91;97426.34;10565962;28;20223;-62
2022/10/17 16:01:42;;;;;;;39.38;23.67;;;;;;;16.52;100.00;97427.09;10569945;28;20208;-61
2022/10/17 16:06:42;;;;;;;34.42;22.50;;;;;;;16.33;100.00;97423.09;10581314;27;20210;-60
2022/10/17 16:11:43;;;;;;;46.90;27.73;;;;;;;16.20;100.00;97410.44;10579617;28;20582;-61
2022/10/17 16:16:43;;;;;;;44.90;26.90;;;;;;;16.18;100.00;97392.13;10579635;28;20198;-60
2022/10/17 16:21:44;;;;;;;41.20;24.00;;;;;;;16.14;100.00;97392.63;10579548;28;20186;-61
2022/10/17 16:26:44;;;;;;;45.28;30.45;;;;;;;16.03;100.00;97389.44;10578457;27;20230;-59
2022/10/17 16:31:45;;;;;;;41.08;26.80;;;;;;;15.93;100.00;97393.28;10577654;28;20225;-61
2022/10/17 16:36:45;;;;;;;42.88;26.73;;;;;;;15.81;100.00;97396.28;10576177;28;20209;-60
2022/10/17 16:41:45;;;;;;;42.38;27.77;;;;;;;15.65;100.00;97417.47;10577810;28;20181;-62
2022/10/17 16:46:46;;;;;;;44.85;28.65;;;;;;;15.63;100.00;97415.00;10578133;28;20209;-61
2022/10/17 16:51:46;;;;;;;48.20;32.38;;;;;;;15.67;100.00;97416.31;10578395;28;20595;-60
2022/10/17 16:56:47;;;;;;;44.90;26.50;;;;;;;15.86;100.00;97416.91;10577652;28;20218;-60
2022/10/17 17:01:48;;;;;;;49.15;31.05;;;;;;;15.77;100.00;97417.91;10578225;28;20644;-60
2022/10/17 17:06:49;;;;;;;40.60;27.67;;;;;;;15.80;100.00;97422.88;10577845;28;20209;-60
2022/10/17 17:11:49;;;;;;;44.90;29.23;;;;;;;15.78;100.00;97422.25;10577441;28;20213;-60
2022/10/17 17:16:49;;;;;;;45.30;28.95;;;;;;;15.84;100.00;97416.28;10576870;28;20198;-59
2022/10/17 17:21:50;;;;;;;29.38;19.00;;;;;;;15.99;100.00;97424.31;10577037;28;20186;-60
2022/10/17 17:26:52;;;;;;;36.92;20.83;;;;;;;16.03;100.00;97426.41;10577235;28;20206;-60
2022/10/17 17:31:53;;;;;;;42.10;26.80;;;;;;;16.00;100.00;97434.69;10576952;28;20225;-59
2022/10/17 17:36:53;;;;;;;25.58;16.20;;;;;;;16.04;100.00;97433.34;10576684;28;20323;-60
2022/10/17 17:41:54;;;;;;;38.95;25.90;;;;;;;16.14;100.00;97432.28;10577059;28;20197;-58
2022/10/17 17:46:54;;;;;;;38.42;27.55;;;;;;;16.04;100.00;97441.25;10575973;28;20217;-60
2022/10/17 17:51:55;;;;;;;42.53;27.60;;;;;;;16.08;100.00;97425.06;10574290;28;20240;-60
2022/10/17 17:56:55;;;;;;;42.30;25.80;;;;;;;16.01;100.00;97431.03;10575673;28;20214;-59
2022/10/17 18:01:56;;;;;;;34.83;22.70;;;;;;;16.01;100.00;97441.59;10574264;28;20219;-58
2022/10/17 18:06:56;;;;;;;34.65;25.02;;;;;;;16.00;100.00;97433.84;10574759;28;20678;-60
2022/10/17 18:11:56;;;;;;;35.60;23.52;;;;;;;16.00;100.00;97442.63;10574978;28;20221;-60
2022/10/17 18:16:57;;;;;;;37.85;21.88;;;;;;;15.98;100.00;97441.16;10574730;28;20214;-60
2022/10/17 18:21:57;;;;;;;36.03;24.00;;;;;;;15.97;100.00;97447.41;10574444;28;20285;-59
2022/10/17 18:26:58;;;;;;;35.03;24.58;;;;;;;15.95;100.00;97447.59;10574241;28;20209;-58
2022/10/17 18:31:59;;;;;;;39.42;24.08;;;;;;;15.90;100.00;97449.94;10574159;28;20710;-60
2022/10/17 18:37:01;;;;;;;34.15;23.27;;;;;;;15.84;100.00;97445.34;10574217;28;20213;-57
2022/10/17 18:42:01;;;;;;;38.30;23.95;;;;;;;15.84;100.00;97447.97;10574100;28;20194;-60
2022/10/17 18:47:02;;;;;;;33.72;23.35;;;;;;;15.75;100.00;97451.63;10573510;28;20278;-59
2022/10/17 18:52:02;;;;;;;37.70;23.98;;;;;;;15.70;100.00;97449.50;10572957;28;20233;-59
2022/10/17 18:57:02;;;;;;;31.60;22.23;;;;;;;15.77;100.00;97446.97;10573407;28;20202;-59
2022/10/17 19:02:03;;;;;;;32.60;20.45;;;;;;;15.80;100.00;97452.78;10573678;28;20182;-57
2022/10/17 19:07:03;;;;;;;28.13;20.90;;;;;;;15.88;100.00;97444.00;10573332;28;20710;-60
2022/10/17 19:12:04;;;;;;;37.15;22.17;;;;;;;15.76;100.00;97448.81;10573357;28;20271;-60
2022/10/17 19:17:04;;;;;;;32.55;22.10;;;;;;;15.73;100.00;97443.88;10572956;28;20213;-60
2022/10/17 19:22:05;;;;;;;34.45;24.52;;;;;;;15.63;100.00;97441.41;10573108;28;20269;-59
2022/10/17 19:27:05;;;;;;;31.95;22.42;;;;;;;15.61;100.00;97453.16;10572862;28;20210;-58
2022/10/17 19:32:09;;;;;;;32.85;21.10;;;;;;;15.57;100.00;97454.47;10572985;28;20209;-59
2022/10/17 19:37:09;;;;;;;31.60;21.95;;;;;;;15.42;100.00;97454.34;10573028;28;20213;-55
2022/10/17 19:42:10;;;;;;;36.05;20.60;;;;;;;15.41;100.00;97455.34;10579316;28;20232;-60
2022/10/17 19:47:10;;;;;;;30.08;21.35;;;;;;;15.33;100.00;97467.56;10580720;28;20748;-58
2022/10/17 19:52:10;;;;;;;31.00;23.05;;;;;;;15.31;100.00;97461.66;10580111;28;20866;-58
2022/10/17 19:57:11;;;;;;;29.20;19.23;;;;;;;15.31;100.00;97466.94;10580427;28;20567;-57
2022/10/17 20:02:11;;;;;;;30.23;18.83;;;;;;;15.35;100.00;97467.41;10580414;28;20585;-57
2022/10/17 20:07:12;;;;;;;30.13;20.85;;;;;;;15.27;100.00;97467.44;10579638;28;20558;-55
2022/10/17 20:12:12;;;;;;;33.95;22.33;;;;;;;15.26;100.00;97473.69;10580031;28;20221;-58
2022/10/17 20:17:13;;;;;;;34.25;22.27;;;;;;;15.19;100.00;97481.47;10579521;28;20209;-61
2022/10/17 20:22:13;;;;;;;29.70;20.67;;;;;;;15.17;100.00;97486.06;10579585;28;20559;-58
2022/10/17 20:27:13;;;;;;;30.55;22.27;;;;;;;15.02;100.00;97490.38;10566823;28;20217;-59
2022/10/17 20:32:14;;;;;;;31.17;19.38;;;;;;;15.00;100.00;97487.06;10536782;28;20263;-60
2022/10/17 20:37:14;;;;;;;31.00;21.05;;;;;;;14.86;100.00;97505.22;10536959;28;20213;-59
2022/10/17 20:42:14;;;;;;;31.50;22.55;;;;;;;14.86;100.00;97507.03;10536241;28;20195;-61
2022/10/17 20:47:15;;;;;;;26.10;19.25;;;;;;;14.95;100.00;97501.59;10536474;28;20689;-61
2022/10/17 20:52:15;;;;;;;25.95;20.08;;;;;;;14.87;100.00;97506.88;10535402;28;20773;-61
2022/10/17 20:57:15;;;;;;;25.02;19.85;;;;;;;15.11;100.00;97513.13;10539346;28;20597;-58
2022/10/17 21:02:16;;;;;;;24.88;15.93;;;;;;;15.13;100.00;97514.63;10578095;28;20229;-60
2022/10/17 21:07:16;;;;;;;22.75;16.40;;;;;;;15.12;100.00;97514.78;10577639;28;20213;-60
2022/10/17 21:12:16;;;;;;;24.75;16.05;;;;;;;15.11;100.00;97506.03;10577680;28;20220;-58
2022/10/17 21:17:17;;;;;;;22.15;15.75;;;;;;;15.15;100.00;97510.00;10575838;28;20235;-56
2022/10/17 21:22:17;;;;;;;17.30;13.30;;;;;;;15.37;100.00;97497.09;10577185;28;20196;-55
2022/10/17 21:27:18;;;;;;;20.35;13.77;;;;;;;15.38;100.00;97500.56;10577126;28;20209;-58
2022/10/17 21:32:18;;;;;;;22.70;12.85;;;;;;;15.30;100.00;97498.78;10577149;28;20594;-58
2022/10/17 21:37:19;;;;;;;21.45;13.93;;;;;;;15.15;100.00;97499.44;10576829;28;20213;-59
2022/10/17 21:42:19;;;;;;;19.98;14.27;;;;;;;14.94;100.00;97496.47;10576704;28;20270;-58
2022/10/17 21:47:20;;;;;;;20.10;13.25;;;;;;;14.90;100.00;97506.53;10576323;28;20296;-59
2022/10/17 21:52:21;;;;;;;19.55;14.02;;;;;;;14.74;100.00;97499.41;10575674;28;20222;-56
2022/10/17 21:57:21;;;;;;;15.82;13.30;;;;;;;14.62;100.00;97509.47;10576086;28;20703;-57
2022/10/17 22:02:21;;;;;;;23.63;13.88;;;;;;;14.38;100.00;97507.56;10575301;28;20549;-61
2022/10/17 22:07:22;;;;;;;23.40;13.35;;;;;;;14.24;100.00;97511.66;10575830;27;20214;-61
2022/10/17 22:12:22;;;;;;;20.42;14.02;;;;;;;14.19;100.00;97513.94;10575249;28;20308;-61
2022/10/17 22:17:22;;;;;;;19.50;13.90;;;;;;;14.07;100.00;97517.84;10575442;28;20213;-57
2022/10/17 22:22:23;;;;;;;18.67;13.75;;;;;;;13.94;100.00;97528.81;10575154;28;20190;-61
2022/10/17 22:27:23;;;;;;;18.05;13.10;;;;;;;13.95;100.00;97524.38;10575070;28;20206;-60
2022/10/17 22:32:23;;;;;;;18.52;12.90;;;;;;;13.82;100.00;97522.19;10575009;28;20643;-58
2022/10/17 22:37:24;;;;;;;19.92;12.20;;;;;;;13.73;100.00;97529.19;10574821;28;20592;-61
2022/10/17 22:42:24;;;;;;;16.42;12.05;;;;;;;13.62;100.00;97526.84;10574697;28;20186;-58
2022/10/17 22:47:24;;;;;;;18.02;12.80;;;;;;;13.58;100.00;97528.13;10574324;28;20296;-58
2022/10/17 22:52:25;;;;;;;21.58;13.38;;;;;;;13.40;100.00;97529.00;10574003;28;20225;-57
2022/10/17 22:57:25;;;;;;;20.38;13.38;;;;;;;13.35;100.00;97536.53;10574257;28;20210;-58
2022/10/17 23:02:26;;;;;;;22.60;13.77;;;;;;;13.24;100.00;97544.66;10574309;28;20189;-57
2022/10/17 23:07:26;;;;;;;18.80;12.45;;;;;;;13.22;100.00;97531.63;10574220;28;20723;-56
2022/10/17 23:12:26;;;;;;;21.67;12.57;;;;;;;13.30;100.00;97544.03;10573754;28;20214;-57
2022/10/17 23:17:27;;;;;;;16.17;11.82;;;;;;;13.16;100.00;97542.78;10581102;28;20228;-57
2022/10/17 23:22:27;;;;;;;21.33;11.70;;;;;;;13.13;100.00;97553.59;10582217;28;20540;-60
2022/10/17 23:27:27;;;;;;;19.75;12.15;;;;;;;13.01;100.00;97548.56;10582437;28;20210;-61
2022/10/17 23:32:28;;;;;;;14.60;11.15;;;;;;;13.02;100.00;97544.16;10581637;28;20225;-60
2022/10/17 23:37:28;;;;;;;20.90;11.40;;;;;;;12.91;100.00;97547.84;10581507;28;20214;-61
2022/10/17 23:42:28;;;;;;;18.20;10.85;;;;;;;12.91;100.00;97555.72;10581583;28;20666;-61
2022/10/17 23:47:29;;;;;;;15.82;11.38;;;;;;;12.93;100.00;97551.13;10581345;28;20765;-61